Recent Weather

Hourly Averages

Time Temperature Humidity Pressure UV Index Image
 
January 20th, 2018
5:00 am 31.6 86.6 1.0
4:00 am 31.9 85.3 1.0
3:00 am 32.4 84.9 1.0
2:00 am 32.6 83.3 1.0
1:00 am 33.0 81.5 1.0
12:00 am 33.4 79.3 1.0
 
January 19th, 2018
11:00 pm 33.8 77.5 1.0
10:00 pm 34.1 77.0 1.0
9:00 pm 34.2 77.0 1.0
8:00 pm 34.3 77.4 1.0
7:00 pm 34.3 78.9 1.0
6:00 pm 35.1 76.4 1.0
5:00 pm 36.2 73.0 1.0
4:00 pm 37.9 68.8 1.0
3:00 pm 39.1 65.6 1.4
2:00 pm 38.7 63.4 1.4
1:00 pm 37.4 63.8 1.3
12:00 pm 35.2 65.2 1.6
11:00 am 32.2 69.1 1.0
10:00 am 28.5 73.4 1.0
9:00 am 25.6 77.0 1.0
8:00 am 23.6 80.9 1.0
7:00 am 22.6 83.8 1.0
6:00 am 22.7 84.0 1.0
5:00 am 22.8 83.9 1.0
4:00 am 22.9 83.0 1.0
3:00 am 22.7 81.6 1.0
2:00 am 22.7 79.1 1.0
1:00 am 23.2 76.8 1.0
12:00 am 23.9 75.9 1.0
 
January 18th, 2018
11:00 pm 24.3 76.7 1.0
10:00 pm 24.4 77.6 1.0
9:00 pm 24.7 77.3 1.0
8:00 pm 25.4 76.5 1.0
7:00 pm 26.5 73.4 1.0
6:00 pm 27.6 70.8 1.0
5:00 pm 29.1 68.0 1.0
4:00 pm 31.9 64.9 1.0
3:00 pm 32.0 63.4 1.5
2:00 pm 30.9 63.7 1.6
1:00 pm 28.8 66.2 1.2
12:00 pm 27.2 66.4 1.7
11:00 am 23.8 71.8 1.0
10:00 am 20.7 75.3 1.0
9:00 am 17.1 80.1 1.0
8:00 am 14.4 84.6 1.0
7:00 am 14.8 84.4 1.0
6:00 am 14.9 84.1 1.0
5:00 am 14.1 86.0 1.0
4:00 am 13.4 87.0 1.0
3:00 am 13.8 87.0 1.0
2:00 am 13.7 87.0 1.0
1:00 am 13.1 88.2 1.0
12:00 am 12.8 89.4 1.0
 
January 17th, 2018
11:00 pm 12.4 90.2 1.0
10:00 pm 12.3 90.0 1.0
9:00 pm 12.4 90.7 1.0
8:00 pm 12.6 91.7 1.0
7:00 pm 12.2 90.3 1.0
6:00 pm 13.4 86.9 1.0
5:00 pm 17.2 76.2 1.0
4:00 pm 22.1 70.0 1.0
3:00 pm 20.9 72.9 1.7
2:00 pm 21.0 70.0 1.6
1:00 pm 17.0 74.5 1.4
12:00 pm 15.9 72.4 1.5
11:00 am 13.8 74.1 1.0
10:00 am 9.3 81.7 1.0
9:00 am 3.8 92.8 1.0
8:00 am -0.5 93.8 1.0
7:00 am -1.7 93.8 1.0
6:00 am -1.2 92.4 1.0
5:00 am 0.5 93.6 1.0
4:00 am 1.5 94.2 1.0
3:00 am 2.6 93.8 1.0
2:00 am 3.8 95.3 1.0
1:00 am 4.0 94.3 1.0
12:00 am 5.0 94.4 1.0
 
January 16th, 2018
11:00 pm 5.8 94.4 1.0
10:00 pm 7.0 93.6 1.0
9:00 pm 7.9 93.0 1.0
8:00 pm 8.6 92.0 1.0
7:00 pm 9.4 91.5 1.0
6:00 pm 9.7 91.0 1.0
5:00 pm 9.6 88.1 1.0
4:00 pm 10.0 86.3 1.0
3:00 pm 10.0 84.3 1.0
2:00 pm 9.8 82.4 1.0
1:00 pm 9.4 79.8 1.0
12:00 pm 8.7 78.8 1.0
11:00 am 6.8 80.5 1.0
10:00 am 3.6 81.7 1.0
9:00 am 1.7 85.1 1.0
8:00 am -0.1 86.0 1.0
7:00 am -1.0 85.4 1.0
6:00 am -1.3 85.9 1.0
5:00 am -1.9 86.3 1.0
4:00 am -1.4 86.0 1.0
3:00 am -0.5 86.0 1.0
2:00 am 0.6 85.7 1.0
1:00 am 1.7 84.9 1.0
12:00 am 3.1 85.0 1.0
 
January 15th, 2018
11:00 pm 4.8 84.3 1.0
10:00 pm 6.5 83.3 1.0
9:00 pm 7.8 83.3 1.0
8:00 pm 8.8 87.1 1.0
7:00 pm 10.8 89.4 1.0
6:00 pm 11.4 88.7 1.0
5:00 pm 13.0 85.5 1.0
4:00 pm 15.3 84.4 1.0
3:00 pm 18.0 85.6 1.0
2:00 pm 20.4 91.4 1.0
1:00 pm 24.5 97.5 1.0
12:00 pm 24.3 99.0 1.0
11:00 am 23.4 98.5 1.0
10:00 am 22.1 97.1 1.0
9:00 am 21.2 97.1 1.0
8:00 am 19.7 98.9 1.0
7:00 am 18.7 99.0 1.0
6:00 am 18.3 99.0 1.0
5:00 am 18.0 99.0 1.0
4:00 am 18.0 99.0 1.0
3:00 am 18.0 99.0 1.0
2:00 am 18.0 99.0 1.0
1:00 am 18.2 99.0 1.0
12:00 am 18.3 99.0 1.0
 
January 14th, 2018
11:00 pm 18.5 99.0 1.0
10:00 pm 18.7 98.3 1.0
9:00 pm 19.0 96.5 1.0
8:00 pm 19.5 86.7 1.0
7:00 pm 19.5 80.2 1.0
6:00 pm 19.3 75.4 1.0
5:00 pm 19.5 71.3 1.0
4:00 pm 21.7 62.8 1.0
3:00 pm 23.9 58.1 1.5
2:00 pm 25.1 55.7 1.1
1:00 pm 24.5 54.4 1.4
12:00 pm 22.2 58.4 1.4
11:00 am 19.2 63.2 1.0
10:00 am 14.5 79.0 1.0
9:00 am 7.7 98.7 1.0
8:00 am -2.0 95.4 1.0
7:00 am -4.1 93.6 1.0
6:00 am -3.7 93.8 1.0
5:00 am -3.3 94.3 1.0
4:00 am -3.0 93.8 1.0
3:00 am -2.5 95.2 1.0
2:00 am -2.3 94.3 1.0
1:00 am -1.8 95.7 1.0
12:00 am -1.8 95.6 1.0
 
January 13th, 2018
11:00 pm -1.2 94.8 1.0
10:00 pm 0.2 95.2 1.0
9:00 pm 2.0 95.9 1.0
8:00 pm 2.9 92.7 1.0
7:00 pm 6.4 82.7 1.0
6:00 pm 11.4 75.0 1.0
5:00 pm 16.2 67.6 1.0
4:00 pm 18.2 64.9 1.0
3:00 pm 19.2 65.6 1.6
2:00 pm 18.8 69.7 1.6
1:00 pm 18.0 75.3 1.5
12:00 pm 16.8 76.3 1.5
11:00 am 14.6 79.6 1.0
10:00 am 12.0 82.2 1.0
3:00 am 16.2 86.8 1.0
2:00 am 16.4 84.2 1.0
1:00 am 17.6 80.1 1.0
12:00 am 18.8 77.5 1.0
 
January 12th, 2018
11:00 pm 20.0 82.1 1.0
10:00 pm 21.2 82.6 1.0
9:00 pm 22.5 81.4 1.0
8:00 pm 24.0 84.2 1.0
7:00 pm 24.4 85.3 1.0
6:00 pm 25.3 84.6 1.0
5:00 pm 26.2 89.4 1.0
4:00 pm 26.6 90.3 1.0
3:00 pm 27.1 89.4 1.0
2:00 pm 27.2 94.6 1.0
1:00 pm 27.3 96.7 1.0
12:00 pm 26.9 98.9 1.0
7:00 am 23.2 99.0 1.0
6:00 am 22.7 99.0 1.0
5:00 am 22.2 99.0 1.0
4:00 am 22.3 99.0 1.0
3:00 am 22.8 99.0 1.0
2:00 am 23.4 99.0 1.0
1:00 am 24.9 99.0 1.0
12:00 am 27.3 99.0 1.0
 
January 11th, 2018
11:00 pm 31.4 99.0 1.0
10:00 pm 35.9 99.0 1.0
9:00 pm 40.7 99.0 1.0
8:00 pm 50.4 99.0 1.0
7:00 pm 57.1 99.0 1.0
6:00 pm 57.7 99.0 1.0
5:00 pm 58.0 99.0 1.0
4:00 pm 58.0 99.0 1.0
3:00 pm 57.9 99.0 1.0
2:00 pm 58.5 99.0 1.0 Rain
1:00 pm 58.9 99.0 1.0
12:00 pm 58.9 99.0 1.0
11:00 am 57.8 99.0 1.0
10:00 am 56.2 99.0 1.0
9:00 am 56.2 99.0 1.0
 
December 31st, 2017
12:00 pm 6.7 71.0 1.5
11:00 am 4.9 73.7 1.0
10:00 am 4.0 75.8 1.0
9:00 am 2.1 81.2 1.0
8:00 am 1.7 86.2 1.0
7:00 am 1.1 88.4 1.0
6:00 am 0.9 86.1 1.0
5:00 am 0.8 81.5 1.0
4:00 am 0.8 80.3 1.0
3:00 am 0.8 80.0 1.0
2:00 am 0.7 79.4 1.0
1:00 am 0.3 80.7 1.0
12:00 am -0.5 81.3 1.0
 
December 30th, 2017
11:00 pm -1.8 82.6 1.0
10:00 pm -3.3 82.7 1.0
9:00 pm -5.8 86.1 1.0
8:00 pm -8.8 84.3 1.0
7:00 pm -6.5 76.4 1.0
6:00 pm -1.7 74.1 1.0
5:00 pm 1.9 69.5 1.0
4:00 pm 5.5 67.0 1.0
3:00 pm 7.8 65.5 1.5
2:00 pm 8.1 69.0 1.2
1:00 pm 8.9 66.2 1.2
12:00 pm 10.2 73.8 1.0
11:00 am 10.5 82.2 1.0
10:00 am 10.8 84.7 1.0
9:00 am 11.8 86.7 1.0
8:00 am 12.6 91.0 1.0
7:00 am 13.2 94.5 1.0
6:00 am 13.5 94.3 1.0
5:00 am 13.3 97.4 1.0
4:00 am 13.3 97.7 1.0
3:00 am 13.6 97.8 1.0
2:00 am 13.8 98.3 1.0
1:00 am 13.9 99.0 1.0
12:00 am 13.9 99.0 1.0
 
December 29th, 2017
11:00 pm 13.4 98.5 1.0
10:00 pm 13.3 97.4 1.0
9:00 pm 13.8 96.0 1.0
8:00 pm 14.3 97.0 1.0
7:00 pm 14.9 95.7 1.0
6:00 pm 15.7 93.1 1.0
5:00 pm 16.2 91.4 1.0
4:00 pm 16.6 89.9 1.0
3:00 pm 17.3 86.1 1.0
2:00 pm 18.4 80.3 1.0
1:00 pm 18.1 73.8 1.0
12:00 pm 17.7 74.0 1.0
11:00 am 18.0 73.0 1.0
10:00 am 15.6 79.9 1.0
9:00 am 12.1 86.6 1.0
8:00 am 10.0 84.8 1.0
7:00 am 12.1 86.0 1.0
6:00 am 12.9 89.1 1.0
5:00 am 13.4 90.6 1.0
4:00 am 14.1 89.8 1.0
3:00 am 15.0 89.0 1.0
2:00 am 15.3 86.0 1.0
1:00 am 15.1 86.2 1.0
12:00 am 14.9 90.4 1.0
 
December 28th, 2017
11:00 pm 14.2 95.5 1.0
10:00 pm 13.7 96.0 1.0
9:00 pm 13.4 93.8 1.0
8:00 pm 14.0 92.4 1.0
7:00 pm 14.6 88.5 1.0
6:00 pm 16.1 75.8 1.0
5:00 pm 16.9 67.6 1.0
4:00 pm 16.6 69.9 1.0
3:00 pm 17.0 68.0 1.0
2:00 pm 17.7 63.3 1.0
1:00 pm 17.0 63.0 1.3
12:00 pm 15.9 64.3 1.4
11:00 am 12.8 70.6 1.0
10:00 am 7.8 76.4 1.0
9:00 am 4.7 81.0 1.0
8:00 am 2.7 84.7 1.0
7:00 am 1.5 86.0 1.0
6:00 am 0.6 90.3 1.0
5:00 am -0.5 91.0 1.0
4:00 am -2.4 91.0 1.0
3:00 am -5.0 92.1 1.0
2:00 am -8.3 91.1 1.0
1:00 am -9.7 88.4 1.0
12:00 am -10.3 88.2 1.0
 
December 27th, 2017
11:00 pm -10.8 87.8 1.0
10:00 pm -10.4 86.3 1.0
9:00 pm -8.2 84.1 1.0
8:00 pm -4.5 81.7 1.0
7:00 pm -0.7 76.7 1.0
6:00 pm 1.4 74.3 1.0
5:00 pm 2.5 71.6 1.0
4:00 pm 4.8 66.5 1.0
3:00 pm 6.5 64.4 1.3
2:00 pm 6.5 63.5 1.3
1:00 pm 6.0 64.7 1.5
12:00 pm 3.3 68.5 1.3
11:00 am 1.3 70.5 1.0
10:00 am -2.1 76.8 1.0
9:00 am -5.8 84.6 1.0
8:00 am -8.8 86.0 1.0
7:00 am -10.4 89.7 1.0
6:00 am -12.8 87.8 1.0
5:00 am -13.3 85.7 1.0
4:00 am -12.3 86.2 1.0
3:00 am -11.3 86.8 1.0
2:00 am -11.0 86.5 1.0
1:00 am -9.7 85.3 1.0
12:00 am -7.7 84.9 1.0
 
December 26th, 2017
11:00 pm -6.1 81.3 1.0
10:00 pm -4.1 78.7 1.0
9:00 pm -1.7 77.5 1.0
8:00 pm -0.0 75.6 1.0
7:00 pm 0.9 73.6 1.0
6:00 pm 2.5 69.5 1.0
5:00 pm 5.0 65.8 1.0
4:00 pm 6.0 63.9 1.0
3:00 pm 7.2 65.0 1.0
2:00 pm 7.6 63.5 1.0
1:00 pm 7.7 62.0 1.0
12:00 pm 7.0 63.3 1.0
11:00 am 6.1 64.5 1.0
10:00 am 5.3 68.9 1.0
9:00 am 4.4 72.3 1.0
8:00 am 3.6 75.1 1.0
7:00 am 3.3 76.1 1.0
6:00 am 3.8 74.1 1.0
5:00 am 4.6 71.4 1.0
4:00 am 5.4 69.0 1.0
3:00 am 6.1 68.7 1.0
2:00 am 7.3 69.4 1.0
1:00 am 9.1 80.8 1.0
12:00 am 8.9 81.3 1.0
 
December 25th, 2017
11:00 pm 8.6 81.9 1.0
10:00 pm 8.8 79.2 1.0
9:00 pm 9.1 78.6 1.0
8:00 pm 11.2 75.4 1.0
7:00 pm 13.5 76.3 1.0
6:00 pm 15.8 72.7 1.0
5:00 pm 17.3 70.3 1.0
4:00 pm 18.2 68.0 1.0
3:00 pm 18.7 64.3 1.4
2:00 pm 18.9 61.8 1.3
1:00 pm 17.9 67.0 1.3
12:00 pm 16.5 73.6 1.6
11:00 am 15.6 77.6 1.0
10:00 am 14.3 81.5 1.0
9:00 am 13.5 85.5 1.0
8:00 am 13.2 88.8 1.0
7:00 am 13.0 89.1 1.0
6:00 am 13.5 89.3 1.0
5:00 am 14.8 88.1 1.0
4:00 am 16.4 86.2 1.0
3:00 am 18.9 85.7 1.0
2:00 am 19.7 90.3 1.0
1:00 am 19.6 91.6 1.0
12:00 am 17.8 95.2 1.0
 
December 24th, 2017
11:00 pm 15.3 96.3 1.0
10:00 pm 15.4 96.9 1.0
9:00 pm 16.3 96.2 1.0
8:00 pm 16.9 96.1 1.0
7:00 pm 18.7 96.9 1.0
6:00 pm 20.2 97.4 1.0
5:00 pm 22.4 98.7 1.0
4:00 pm 26.4 97.5 1.0
3:00 pm 31.1 90.8 1.0 Rain
2:00 pm 31.5 92.6 1.0 Rain
1:00 pm 30.5 94.8 1.0 Rain
12:00 pm 28.7 98.8 1.0 Rain
11:00 am 28.2 99.0 1.0
10:00 am 27.6 99.0 1.0
9:00 am 27.3 99.0 1.0
8:00 am 26.8 99.0 1.0
7:00 am 26.6 95.1 1.0
6:00 am 26.5 92.8 1.0
5:00 am 26.5 91.8 1.0
4:00 am 26.4 93.0 1.0
3:00 am 26.3 92.7 1.0
2:00 am 26.0 96.7 1.0
1:00 am 25.6 98.9 1.0
12:00 am 26.0 96.9 1.0
 
December 23rd, 2017
11:00 pm 27.1 94.0 1.0
10:00 pm 27.7 92.1 1.0
9:00 pm 28.4 86.6 1.0
8:00 pm 29.3 85.9 1.0
7:00 pm 29.9 84.2 1.0
6:00 pm 31.4 79.6 1.0
5:00 pm 33.6 67.9 1.0
4:00 pm 36.9 64.3 1.0
3:00 pm 37.1 73.9 1.0
2:00 pm 37.8 78.3 1.3
1:00 pm 35.4 86.6 1.0
12:00 pm 34.7 93.7 1.0
11:00 am 34.8 96.9 1.0
10:00 am 33.5 99.0 1.0
9:00 am 33.0 99.0 1.0
8:00 am 32.6 99.0 1.0
7:00 am 32.3 99.0 1.0
6:00 am 32.5 99.0 1.0
5:00 am 33.6 99.0 1.0
4:00 am 35.7 99.0 1.0 Rain
3:00 am 36.3 99.0 1.0
2:00 am 36.3 99.0 1.0
1:00 am 36.4 99.0 1.0
12:00 am 36.5 99.0 1.0
 
December 22nd, 2017
11:00 pm 36.7 99.0 1.0
10:00 pm 37.1 99.0 1.0
9:00 pm 37.7 99.0 1.0
8:00 pm 38.3 99.0 1.0
7:00 pm 39.2 99.0 1.0
6:00 pm 40.1 99.0 1.0
5:00 pm 40.6 99.0 1.0
4:00 pm 41.0 99.0 1.0
3:00 pm 41.5 99.0 1.0
2:00 pm 41.7 99.0 1.0
1:00 pm 41.6 99.0 1.0
12:00 pm 41.4 99.0 1.0
11:00 am 40.8 99.0 1.0
10:00 am 39.6 99.0 1.0
9:00 am 39.6 99.0 1.0 Rain
8:00 am 40.2 99.0 1.0 Rain
7:00 am 40.0 99.0 1.0
6:00 am 40.0 99.0 1.0
5:00 am 39.9 99.0 1.0
4:00 am 40.0 99.0 1.0
3:00 am 39.9 99.0 1.0
2:00 am 39.6 98.8 1.0
1:00 am 39.7 96.8 1.0
12:00 am 40.1 94.5 1.0
 
December 21st, 2017
11:00 pm 41.2 89.2 1.0
10:00 pm 42.6 80.9 1.0
9:00 pm 43.6 76.1 1.0
8:00 pm 44.2 74.8 1.0
7:00 pm 45.0 72.9 1.0
6:00 pm 46.1 68.5 1.0
5:00 pm 46.5 65.3 1.0
4:00 pm 46.8 63.5 1.0
3:00 pm 49.4 57.7 1.0
2:00 pm 49.9 55.1 1.0
1:00 pm 49.2 56.8 1.0
12:00 pm 43.8 65.8 1.0
11:00 am 39.5 72.2 1.0
10:00 am 36.8 77.4 1.0
9:00 am 32.5 87.8 1.0
8:00 am 29.4 94.1 1.0
7:00 am 28.9 94.2 1.0
6:00 am 28.6 95.5 1.0
5:00 am 27.6 98.0 1.0
4:00 am 26.9 98.9 1.0
3:00 am 25.9 99.0 1.0
2:00 am 26.5 98.1 1.0
1:00 am 28.4 96.0 1.0
12:00 am 29.3 93.5 1.0
 
December 20th, 2017
11:00 pm 31.6 87.8 1.0
10:00 pm 34.0 80.8 1.0
9:00 pm 35.1 78.4 1.0
8:00 pm 36.4 75.2 1.0
7:00 pm 36.5 73.8 1.0
6:00 pm 36.3 73.8 1.0
5:00 pm 39.0 64.9 1.0
4:00 pm 44.3 54.6 1.0
3:00 pm 47.3 51.0 1.1
2:00 pm 47.7 52.0 1.0
1:00 pm 47.0 54.1 1.0
12:00 pm 44.1 59.9 1.1
11:00 am 40.6 69.8 1.0
10:00 am 36.9 77.4 1.0
9:00 am 33.6 85.0 1.0
8:00 am 31.9 87.7 1.0
7:00 am 30.5 90.6 1.0
6:00 am 27.2 97.3 1.0
5:00 am 24.1 99.0 1.0
4:00 am 23.4 99.0 1.0
3:00 am 23.7 98.0 1.0
2:00 am 25.9 96.4 1.0
1:00 am 28.2 95.3 1.0
12:00 am 31.2 89.4 1.0
 
December 19th, 2017
11:00 pm 33.9 85.2 1.0
10:00 pm 34.0 92.7 1.0
9:00 pm 36.9 89.6 1.0
8:00 pm 38.0 94.8 1.0
7:00 pm 39.0 98.0 1.0
6:00 pm 43.5 94.0 1.0
5:00 pm 46.5 91.2 1.0
4:00 pm 48.6 87.9 1.0
3:00 pm 49.5 86.4 1.0
2:00 pm 50.5 83.5 1.0
1:00 pm 52.3 78.2 1.0
12:00 pm 51.9 80.5 1.1
11:00 am 48.5 90.6 1.0
10:00 am 43.3 98.9 1.0
9:00 am 41.3 99.0 1.0
8:00 am 39.0 99.0 1.0
7:00 am 37.8 99.0 1.0
6:00 am 37.6 99.0 1.0
5:00 am 38.1 99.0 1.0
4:00 am 38.5 99.0 1.0


Daily Log

Date Low High UV Index
January, 2018
2018-01-20 31.4 33.6 1.0
2018-01-19 22.4 39.3 2.0
2018-01-18 12.7 32.5 2.0
2018-01-17 -2.2 22.5 2.0
2018-01-16 -2.1 10.4 1.0
2018-01-15 4.1 25.7 1.0
2018-01-14 -4.4 25.7 2.0
2018-01-13 -1.9 19.5 2.0
2018-01-12 19.4 29.1 1.0
2018-01-11 29.4 59.2 1.0 Rain
December, 2017
2017-12-31 -1.0 7.0 2.0
2017-12-30 -9.6 14.0 2.0
2017-12-29 9.8 18.7 1.0
2017-12-28 -10.7 17.9 2.0
2017-12-27 -13.9 6.9 2.0
2017-12-26 -7.4 9.4 1.0
2017-12-25 8.3 19.8 2.0
2017-12-24 15.0 32.7 1.0 Rain
2017-12-23 26.8 38.1 2.0 Rain
2017-12-22 36.6 41.8 1.0 Rain
2017-12-21 25.7 51.1 1.0
2017-12-20 22.9 48.2 2.0
2017-12-19 32.7 53.3 2.0
2017-12-18 39.8 49.7 1.0 Rain
2017-12-17 33.7 45.3 1.0 Rain
2017-12-16 29.4 53.2 1.0
2017-12-15 15.9 36.1 2.0
2017-12-14 18.9 38.8 1.0
2017-12-13 16.5 40.4 1.0 Rain
2017-12-12 12.4 33.9 2.0 Rain
2017-12-11 14.3 47.1 1.0
2017-12-10 17.7 42.4 2.0
2017-12-09 20.5 32.1 1.0 Rain
2017-12-08 13.8 38.3 2.0
2017-12-07 17.1 31.6 1.0
2017-12-06 25.4 41.1 2.0
2017-12-05 25.4 56.7 2.0 Rain
2017-12-04 44.7 63.8 1.0 Rain
2017-12-03 23.4 66.6 2.0
2017-12-02 25.7 61.8 2.0
2017-12-01 21.4 62.2 2.0
November, 2017
2017-11-30 28.2 54.6 2.0 Rain
2017-11-29 24.5 56.6 2.0
2017-11-28 46.4 68.2 2.0
2017-11-27 34.3 66.0 1.0
2017-11-26 19.5 53.7 2.0
2017-11-25 29.4 55.7 2.0
2017-11-24 30.9 61.4 2.0
2017-11-23 25.0 50.6 2.0
2017-11-22 22.2 41.8 2.0
2017-11-21 27.9 51.5 1.0 Rain
2017-11-20 25.3 54.4 2.0
2017-11-19 26.2 38.3 2.0
2017-11-18 38.4 54.3 1.0 Rain
2017-11-17 30.3 49.5 1.0 Rain
2017-11-16 29.7 38.5 1.0
2017-11-15 34.7 50.3 1.0 Rain
2017-11-14 26.9 59.6 2.0
2017-11-13 32.9 47.1 2.0
2017-11-12 35.0 42.6 1.0
2017-11-11 23.6 49.5 1.0
2017-11-10 19.7 39.2 2.0
2017-11-09 23.5 52.8 2.0
2017-11-08 26.6 59.4 2.0
2017-11-07 38.6 50.9 1.0
2017-11-06 41.8 53.7 2.0
2017-11-05 49.8 68.1 1.0 Rain
2017-11-04 40.9 58.8 1.0 Rain
2017-11-03 41.0 57.5 2.0
2017-11-02 50.1 66.6 1.0 Rain
2017-11-01 33.9 49.9 1.0 Rain
October, 2017
2017-10-31 34.7 47.8 2.0
2017-10-30 33.0 50.3 1.0
2017-10-29 28.6 50.8 2.0
2017-10-28 35.8 41.6 1.0
2017-10-27 38.9 55.0 2.0
2017-10-26 28.0 71.6 2.0 Rain
2017-10-25 30.9 55.1 2.0
2017-10-24 42.5 50.5 1.0
2017-10-23 50.3 62.4 1.0 Rain
2017-10-22 59.4 78.5 1.0 Rain
2017-10-21 51.5 84.2 3.0
2017-10-20 46.4 86.2 2.0
2017-10-19 49.3 83.5 2.0
2017-10-18 35.8 76.5 3.0
2017-10-17 42.9 73.5 3.0
2017-10-16 36.9 68.7 3.0
2017-10-15 49.8 74.5 1.0 Rain
2017-10-14 59.6 90.3 2.0
2017-10-13 52.3 85.8 2.0
2017-10-12 54.4 66.5 1.0
2017-10-11 57.1 65.7 1.0
2017-10-10 58.0 78.3 2.0 Rain
2017-10-09 60.0 92.6 3.0
2017-10-08 48.3 83.1 3.0
2017-10-07 60.6 86.6 3.0 Rain
2017-10-06 66.0 73.4 1.0 Rain
2017-10-05 63.9 81.0 1.0 Rain
2017-10-04 67.3 82.7 2.0 Rain
2017-10-03 62.1 88.9 2.0
2017-10-02 49.2 93.7 3.0
2017-10-01 39.0 86.3 3.0 Rain
September, 2017
2017-09-30 43.4 79.1 3.0 Rain
2017-09-29 44.4 78.4 3.0 Rain
2017-09-28 47.3 77.1 3.0 Rain
2017-09-27 59.4 78.6 2.0 Rain
2017-09-26 62.5 98.9 2.0
2017-09-25 56.1 103.0 3.0
2017-09-24 61.1 103.5 3.0
2017-09-23 63.3 106.0 3.0
2017-09-22 64.7 102.1 3.0
2017-09-21 68.3 104.1 3.0
2017-09-20 59.7 100.3 3.0
2017-09-19 63.0 83.7 3.0 Rain
2017-09-18 66.3 87.4 3.0 Rain
2017-09-17 65.2 98.9 3.0 Rain
2017-09-16 59.4 103.8 3.0 Rain
2017-09-15 53.1 103.0 3.0
2017-09-14 53.0 89.6 3.0
2017-09-13 61.8 72.8 1.0 Rain
2017-09-12 50.1 82.9 3.0
2017-09-11 42.1 76.0 2.0 Rain
2017-09-10 41.8 87.9 3.0
2017-09-09 50.5 82.2 3.0
2017-09-08 45.0 83.5 3.0
2017-09-07 45.0 72.3 2.0
2017-09-06 44.9 70.5 4.0
2017-09-05 54.2 72.2 3.0
2017-09-04 57.2 91.8 2.0 Rain
2017-09-03 56.6 85.4 3.0
2017-09-02 45.9 79.9 4.0 Rain
2017-09-01 53.8 70.5 2.0
August, 2017
2017-08-31 55.0 80.2 2.0
2017-08-30 56.8 83.8 4.0
2017-08-29 60.8 88.3 4.0
2017-08-28 62.1 94.4 3.0 Rain
2017-08-27 52.5 92.7 3.0 Rain
2017-08-26 49.5 90.1 3.0
2017-08-25 47.4 82.3 4.0
2017-08-24 51.4 83.2 4.0
2017-08-23 52.8 80.7 4.0
2017-08-22 64.0 81.1 4.0 Rain
2017-08-21 65.6 98.7 2.0 Rain
2017-08-20 59.6 103.1 4.0 Rain
2017-08-19 61.9 94.2 3.0
2017-08-18 64.6 87.6 3.0
2017-08-17 72.4 89.9 4.0 Rain
2017-08-16 62.9 102.7 3.0
2017-08-15 63.7 93.5 3.0 Rain
2017-08-14 56.6 95.0 4.0
2017-08-13 49.7 92.8 4.0 Rain
2017-08-12 54.8 82.0 4.0
2017-08-11 63.9 88.0 4.0 Rain
2017-08-10 54.3 95.9 4.0
2017-08-09 53.9 97.7 4.0 Rain
2017-08-08 51.2 86.9 4.0
2017-08-07 62.2 81.0 2.0
2017-08-06 55.7 74.3 1.0
2017-08-05 54.1 81.9 3.0
2017-08-04 56.7 71.8 2.0 Rain
2017-08-03 63.1 92.9 3.0 Rain
2017-08-02 63.0 91.8 4.0
2017-08-01 64.4 95.3 4.0
July, 2017
2017-07-31 57.1 98.1 4.0
2017-07-30 53.2 95.6 4.0
2017-07-29 53.0 83.6 4.0
2017-07-28 66.2 84.6 4.0
2017-07-27 71.9 88.9 5.0 Rain
2017-07-26 58.5 98.0 3.0 Rain
2017-07-25 56.1 91.2 4.0
2017-07-24 64.9 82.3 5.0
2017-07-23 70.2 90.3 4.0
2017-07-22 71.9 88.5 4.0 Rain
2017-07-21 70.6 102.4 4.0 Rain
2017-07-20 69.2 93.3 4.0 Rain
2017-07-19 63.7 99.9 4.0
2017-07-18 63.2 94.4 5.0
2017-07-17 60.8 91.1 4.0
2017-07-16 62.8 91.3 4.0
2017-07-15 55.8 86.5 5.0
2017-07-14 65.1 82.7 5.0
2017-07-13 71.6 89.5 4.0 Rain
2017-07-12 72.1 93.7 4.0 Rain
2017-07-11 70.4 83.1 2.0 Rain
2017-07-10 73.1 89.3 3.0 Rain
2017-07-09 53.7 97.3 5.0 Rain
2017-07-08 60.4 83.1 5.0 Rain
2017-07-07 68.3 93.1 3.0 Rain
2017-07-06 69.3 102.7 5.0
2017-07-05 63.9 98.7 3.0
2017-07-04 66.3 100.2 4.0 Rain
2017-07-03 69.4 98.5 5.0
2017-07-02 59.5 90.4 5.0
2017-07-01 67.2 86.2 5.0 Rain
June, 2017
2017-06-30 68.6 86.3 2.0 Rain
2017-06-29 69.2 91.6 4.0 Rain
2017-06-28 50.4 85.5 3.0
2017-06-27 46.1 85.2 4.0
2017-06-26 52.1 75.0 3.0 Rain
2017-06-25 55.7 75.8 5.0
2017-06-24 57.5 77.5 5.0
2017-06-23 66.7 79.1 3.0 Rain
2017-06-22 71.0 85.3 4.0 Rain
2017-06-21 59.4 90.7 4.0
2017-06-20 57.1 84.5 4.0
2017-06-19 59.6 77.2 5.0 Rain
2017-06-18 65.0 78.7 5.0 Rain
2017-06-17 69.2 84.1 3.0
2017-06-16 63.0 92.1 4.0 Rain
2017-06-15 65.4 89.7 4.0 Rain
2017-06-14 65.8 92.4 5.0 Rain
2017-06-13 67.5 99.0 5.0 Rain
2017-06-12 69.4 95.0 5.0
2017-06-11 68.2 94.8 4.0
2017-06-10 66.0 92.4 4.0
2017-06-09 61.7 91.5 4.0
2017-06-08 45.2 95.0 5.0
2017-06-07 53.5 81.3 5.0
2017-06-06 51.6 82.4 5.0
2017-06-05 63.1 94.1 5.0
2017-06-04 70.6 93.0 4.0 Rain
2017-06-03 51.8 98.5 5.0
2017-06-02 46.9 96.7 5.0
2017-06-01 47.3 86.9 5.0
May, 2017
2017-05-31 52.8 78.9 5.0
2017-05-30 54.1 77.9 5.0
2017-05-29 58.1 84.9 5.0
2017-05-28 57.0 81.6 4.0 Rain
2017-05-27 60.8 83.0 3.0
2017-05-26 47.9 88.1 5.0 Rain
2017-05-25 54.3 64.6 1.0
2017-05-24 55.5 65.1 1.0 Rain
2017-05-23 56.7 82.5 3.0
2017-05-22 47.8 78.0 5.0
2017-05-21 56.3 71.8 6.0
2017-05-20 51.6 80.9 4.0 Rain
2017-05-19 52.5 69.7 5.0 Rain
2017-05-18 69.3 91.7 5.0 Rain
2017-05-17 68.4 87.2 4.0
2017-05-16 65.2 87.6 5.0
2017-05-15 52.9 93.6 5.0
2017-05-14 52.5 85.9 5.0
2017-05-13 43.5 80.2 5.0
2017-05-12 48.3 73.7 5.0
2017-05-11 51.7 65.0 1.0 Rain
2017-05-10 50.1 84.3 4.0 Rain
2017-05-09 45.1 64.0 2.0
2017-05-08 30.8 71.8 5.0 Rain
2017-05-07 33.7 64.3 5.0
2017-05-06 36.8 58.8 6.0 Rain
2017-05-05 41.2 58.1 5.0
2017-05-04 45.2 48.2 1.0 Rain
2017-05-03 32.0 59.9 2.0 Rain
2017-05-02 43.2 55.7 3.0
2017-05-01 48.1 67.6 2.0 Rain
April, 2017
2017-04-30 50.9 68.2 1.0
2017-04-29 51.2 59.2 2.0 Rain
2017-04-28 42.4 59.5 1.0
2017-04-27 48.8 61.5 3.0 Rain
2017-04-26 61.5 86.4 5.0 Rain
2017-04-25 48.1 83.2 5.0
2017-04-24 32.6 78.2 5.0
2017-04-23 33.0 73.9 5.0
2017-04-22 41.7 64.2 5.0
2017-04-21 43.7 59.5 2.0
2017-04-20 53.7 81.9 5.0 Rain
2017-04-19 61.4 84.7 4.0
2017-04-18 39.1 80.7 5.0
2017-04-17 47.3 81.0 5.0
2017-04-16 54.4 72.7 3.0 Rain
2017-04-15 57.4 83.5 5.0
2017-04-14 48.8 78.3 4.0 Rain
2017-04-13 44.7 73.4 3.0
2017-04-12 33.7 71.4 4.0
2017-04-11 45.1 62.5 3.0
2017-04-10 61.6 71.9 2.0 Rain
2017-04-09 52.1 77.4 4.0
2017-04-08 30.7 67.6 5.0
2017-04-07 31.5 55.0 6.0
2017-04-06 37.3 49.7 5.0
2017-04-05 41.5 53.3 3.0 Rain
2017-04-04 42.8 56.7 2.0
2017-04-03 49.7 67.2 1.0 Rain
2017-04-02 38.8 64.9 5.0
2017-04-01 38.2 61.5 5.0
March, 2017
2017-03-31 39.1 55.0 1.0 Rain
2017-03-30 44.3 59.2 4.0
2017-03-29 44.6 59.4 4.0
2017-03-28 40.8 54.8 3.0
2017-03-27 49.3 62.8 1.0 Rain
2017-03-26 53.1 63.8 3.0 Rain
2017-03-25 58.2 74.5 4.0 Rain
2017-03-24 49.7 77.5 5.0
2017-03-23 27.5 54.8 4.0
2017-03-22 24.5 42.5 6.0
2017-03-21 33.5 57.9 4.0 Rain
2017-03-20 40.1 54.1 2.0 Rain
2017-03-19 26.6 57.4 5.0
2017-03-18 36.4 44.5 1.0
2017-03-17 32.4 46.2 1.0 Rain
2017-03-16 14.5 48.1 5.0
2017-03-15 16.3 35.5 5.0
2017-03-14 14.0 32.4 5.0
2017-03-13 24.7 31.4 1.0
2017-03-12 13.5 43.1 5.0
2017-03-11 21.1 37.1 4.0
2017-03-10 22.6 40.6 5.0
2017-03-09 25.7 56.9 3.0
2017-03-08 37.1 58.4 5.0
2017-03-07 40.3 63.3 6.0 Rain
2017-03-06 52.3 62.0 1.0 Rain
2017-03-05 31.3 66.7 4.0
2017-03-04 29.0 46.3 5.0
2017-03-03 22.7 38.4 5.0
2017-03-02 27.0 39.8 3.0
2017-03-01 35.5 63.4 1.0 Rain
February, 2017
2017-02-28 45.2 64.0 1.0 Rain
2017-02-27 28.4 60.5 4.0
2017-02-26 18.2 50.9 5.0
2017-02-25 24.0 42.8 3.0 Rain
2017-02-24 43.1 68.2 2.0 Rain
2017-02-23 48.7 67.0 2.0 Rain
2017-02-22 48.0 70.8 5.0 Rain
2017-02-21 51.9 60.4 1.0
2017-02-20 36.2 59.6 2.0
2017-02-19 38.3 74.1 5.0
2017-02-18 45.3 70.5 4.0
2017-02-17 38.8 69.0 5.0
2017-02-16 27.2 50.6 6.0
2017-02-15 25.9 39.9 4.0
2017-02-14 32.6 52.5 5.0
2017-02-13 22.6 47.9 5.0
2017-02-12 32.3 52.5 5.0 Rain
2017-02-11 42.2 67.9 4.0 Rain
2017-02-10 7.9 45.6 3.0
2017-02-09 3.6 23.4 5.0
2017-02-08 20.7 34.9 1.0
2017-02-07 35.0 1,000.0 1.0 Rain
2017-02-06 22.2 55.3 3.0 Rain
2017-02-05 24.4 47.1 4.0
2017-02-04 8.2 35.9 3.0
2017-02-03 14.2 31.4 5.0
2017-02-02 17.0 30.6 5.0
2017-02-01 30.1 40.6 1.0
January, 2017
2017-01-31 36.4 41.5 1.0
2017-01-30 13.0 36.2 4.0
2017-01-29 24.0 28.8 1.0
2017-01-28 24.6 32.7 1.0
2017-01-27 25.0 31.3 1.0
2017-01-26 30.7 37.3 1.0 Rain
2017-01-25 37.3 51.9 2.0
2017-01-24 38.4 41.2 1.0
2017-01-23 39.1 43.3 1.0
2017-01-22 37.8 53.7 2.0
2017-01-21 44.7 65.4 4.0 Rain
2017-01-20 42.3 52.4 1.0
2017-01-19 33.9 44.9 1.0 Rain
2017-01-18 34.2 38.6 1.0 Rain
2017-01-17 36.1 55.8 1.0 Rain
2017-01-16 32.9 1,000.0 1.0 Rain
2017-01-15 23.5 36.4 1.0
2017-01-14 25.0 32.0 1.0 Rain
2017-01-13 19.7 1,000.0 2.0
2017-01-12 25.3 54.4 1.0 Rain
2017-01-11 27.5 60.8 1.0 Rain